Fecha, hora, temperatura, viento dirección y velocidad, humedad y presión.

  • 16-01-2019 17:00:00 | 9.60°C | Oeste |6.00 km/h | 88.00% | 974.10 hPa
  • 16-01-2019 16:00:00 | 9.80°C | Sudoeste |10.00 km/h | 86.00% | 973.90 hPa
  • 16-01-2019 15:00:00 | 9.70°C | Oeste |11.00 km/h | 89.00% | 973.70 hPa
  • 16-01-2019 14:00:00 | 8.40°C | Oeste |10.00 km/h | 97.00% | 974.20 hPa
  • 16-01-2019 13:00:00 | 8.80°C | Oeste |7.00 km/h | 98.00% | 974.60 hPa
  • 16-01-2019 12:00:00 | 8.70°C | Sudoeste |8.00 km/h | 97.00% | 974.90 hPa
  • 16-01-2019 11:00:00 | 8.30°C | Sudoeste |8.00 km/h | 100.00% | 974.70 hPa
  • 16-01-2019 10:00:00 | 7.80°C | Sur |4.00 km/h | 100.00% | 974.30 hPa
  • 16-01-2019 09:00:00 | 7.80°C | Sudoeste |7.00 km/h | 100.00% | 974.10 hPa
  • 16-01-2019 08:00:00 | 7.80°C | Sur |8.00 km/h | 100.00% | 973.90 hPa
  • 16-01-2019 07:00:00 | 7.80°C | Sur |8.00 km/h | 99.00% | 973.70 hPa
  • 16-01-2019 06:00:00 | 7.80°C | Sur |7.00 km/h | 98.00% | 973.90 hPa
  • 16-01-2019 05:00:00 | 8.00°C | Sur |5.00 km/h | 95.00% | 974.20 hPa
  • 16-01-2019 04:00:00 | 8.10°C | Sur |9.00 km/h | 93.00% | 974.40 hPa
  • 16-01-2019 03:00:00 | 8.00°C | Sur |6.00 km/h | 92.00% | 974.50 hPa
  • 16-01-2019 02:00:00 | 7.10°C | Sur |5.00 km/h | 93.00% | 974.80 hPa
  • 16-01-2019 01:00:00 | 6.40°C | Sur |4.00 km/h | 95.00% | 975.10 hPa
  • 16-01-2019 00:00:00 | 6.60°C | Sudeste |5.00 km/h | 95.00% | 975.30 hPa
  • 15-01-2019 23:00:00 | 7.20°C | Sur |6.00 km/h | 95.00% | 975.70 hPa
  • 15-01-2019 22:00:00 | 8.00°C | Sur |3.00 km/h | 95.00% | 975.70 hPa
  • 15-01-2019 21:00:00 | 7.90°C | Sudoeste |6.00 km/h | 95.00% | 975.70 hPa
  • 15-01-2019 20:00:00 | 7.90°C | Sudoeste |9.00 km/h | 89.00% | 975.60 hPa
  • 15-01-2019 19:00:00 | 8.90°C | Oeste |11.00 km/h | 72.00% | 975.40 hPa
  • 15-01-2019 18:00:00 | 10.80°C | Sudoeste |3.00 km/h | 67.00% | 975.10 hPa
    • diseño web asturias Información sobre el estado de las mareas, altura de la marejada, temperatura del agua y otros datos de Gijón en Asturias.

      Surf Gijón